Overview Statistics Trail Chart Weather Telemetry Raw packets
 

This is the latest recevied weather packets stored in our database for station/object W2SBL-1. If no packets are shown the sender has not sent any weather packets the latest 10 day(s).

<< 16 17 18 19 20 21 22 >>
Time Temp. Humidity Pressure Rain* Wind** Luminosity Snow
1788026274 39.44° C 44% 1022.6 hPa - - - -
1788025373 38.89° C 44% 1022.6 hPa - - - -
1788024473 38.89° C 44% 1022.7 hPa - - - -
1788023573 38.33° C 44% 1022.6 hPa - - - -
1788022673 38.33° C 43% 1022.8 hPa - - - -
1788021773 38.33° C 42% 1022.8 hPa - - - -
1788020873 37.78° C 42% 1022.8 hPa - - - -
1788019981 37.22° C 41% 1022.9 hPa - - - -
1788019073 36.67° C 41% 1023 hPa - - - -
1788018173 35.56° C 41% 1023 hPa - - - -
1788017273 33.33° C 42% 1022.8 hPa - - - -
1788016373 24.44° C 47% 1016.4 hPa - - - -
1788015473 25.56° C 53% 1022.9 hPa - - - -
1788014577 24.44° C 54% 1022.9 hPa - - - -
1788013672 24.44° C 54% 1022.9 hPa - - - -
1788012777 23.89° C 54% 1022.9 hPa - - - -
1788011872 23.33° C 55% 1022.6 hPa - - - -
1788010972 23.33° C 55% 1022.5 hPa - - - -
1788010072 22.78° C 55% 1022.5 hPa - - - -
1788009172 22.78° C 55% 1022.4 hPa - - - -
1788008272 22.78° C 55% 1022.1 hPa - - - -
1788007372 22.78° C 55% 1022.2 hPa - - - -
1788006472 22.22° C 56% 1022.1 hPa - - - -
1788005572 21.67° C 57% 1022 hPa - - - -
1788004672 21.67° C 57% 1021.8 hPa - - - -

* Rain since midnight (hover to see other rain measurements)
** Current wind speed in m/s (hover to see current wind gust speed)